createdAt,value
2018-01-21T00:00:38.361Z,37.33
2018-01-21T00:03:06.364Z,43.65
2018-01-21T00:05:34.308Z,82.50
2018-01-21T00:08:02.313Z,46.05
2018-01-21T00:10:30.222Z,41.72
2018-01-21T00:12:58.161Z,37.10
2018-01-21T00:15:26.079Z,38.67
2018-01-21T00:17:54.027Z,37.45
2018-01-21T00:20:21.952Z,38.40
2018-01-21T00:22:50.001Z,38.78
2018-01-21T00:25:17.985Z,31.30
2018-01-21T00:27:45.901Z,35.05
2018-01-21T00:30:13.861Z,35.50
2018-01-21T00:32:41.909Z,34.15
2018-01-21T00:35:09.885Z,35.10
2018-01-21T00:37:37.843Z,36.95
2018-01-21T00:40:05.830Z,30.25
2018-01-21T00:42:33.801Z,34.53
2018-01-21T00:45:01.906Z,32.38
2018-01-21T00:47:29.821Z,32.78
2018-01-21T00:49:57.863Z,31.80
2018-01-21T00:52:25.802Z,31.63
2018-01-21T00:54:54.505Z,34.97
2018-01-21T00:57:22.469Z,34.92
2018-01-21T00:59:50.465Z,29.10
2018-01-21T01:02:18.441Z,31.48
2018-01-21T01:04:46.552Z,33.07
2018-01-21T01:07:14.611Z,33.57
2018-01-21T01:09:42.574Z,31.80
2018-01-21T01:12:10.554Z,31.10
2018-01-21T01:14:38.516Z,35.47
2018-01-21T01:17:06.533Z,31.87
2018-01-21T01:19:34.562Z,47.37
2018-01-21T01:22:02.522Z,44.63
2018-01-21T01:24:30.441Z,41.90
2018-01-21T01:26:58.376Z,35.37
2018-01-21T01:29:26.583Z,35.47
2018-01-21T01:31:54.506Z,32.77
2018-01-21T01:34:22.474Z,35.20
2018-01-21T01:36:50.501Z,35.07
2018-01-21T01:39:18.425Z,32.53
2018-01-21T01:41:46.424Z,32.97
2018-01-21T01:44:14.525Z,35.17
2018-01-21T01:46:42.522Z,34.77
2018-01-21T01:49:10.445Z,35.37
2018-01-21T01:51:38.414Z,36.97
2018-01-21T01:54:06.343Z,40.33
2018-01-21T01:56:34.289Z,36.70
2018-01-21T01:59:02.261Z,38.30
2018-01-21T02:01:30.170Z,35.45
2018-01-21T02:03:58.166Z,33.38
2018-01-21T02:06:26.101Z,38.63
2018-01-21T02:08:54.073Z,38.77
2018-01-21T02:11:22.048Z,37.87
2018-01-21T02:13:49.971Z,36.00
2018-01-21T02:16:17.889Z,36.93
2018-01-21T02:18:46.261Z,39.10
2018-01-21T02:21:14.275Z,32.17
2018-01-21T02:23:42.255Z,37.53
2018-01-21T02:26:10.368Z,36.83
2018-01-21T02:28:38.475Z,36.55
2018-01-21T02:31:06.386Z,41.60
2018-01-21T02:33:34.337Z,33.72
2018-01-21T02:36:02.270Z,37.80
2018-01-21T02:38:30.301Z,41.83
2018-01-21T02:40:58.251Z,40.70
2018-01-21T02:43:26.177Z,37.28
2018-01-21T02:45:54.197Z,38.05
2018-01-21T02:48:22.165Z,39.03
2018-01-21T02:50:50.106Z,35.60
2018-01-21T02:53:18.044Z,35.17
2018-01-21T02:55:46.015Z,37.05
2018-01-21T02:58:14.051Z,39.78
2018-01-21T03:00:42.048Z,39.03
2018-01-21T03:03:09.989Z,41.45
2018-01-21T03:05:37.913Z,35.08
2018-01-21T03:08:05.958Z,39.15
2018-01-21T03:10:33.881Z,39.97
2018-01-21T03:13:01.834Z,35.17
2018-01-21T03:15:29.765Z,40.67
2018-01-21T03:17:57.717Z,37.95
2018-01-21T03:20:25.657Z,39.67
2018-01-21T03:22:53.809Z,40.83
2018-01-21T03:25:22.151Z,41.10
2018-01-21T03:27:50.173Z,38.60
2018-01-21T03:30:18.134Z,39.83
2018-01-21T03:32:46.057Z,40.08
2018-01-21T03:35:14.007Z,38.23
2018-01-21T03:37:41.926Z,39.77
2018-01-21T03:40:09.868Z,38.80
2018-01-21T03:42:37.811Z,38.13
2018-01-21T03:45:05.809Z,38.92
2018-01-21T03:47:33.728Z,39.50
2018-01-21T03:50:01.693Z,40.30
2018-01-21T03:52:29.622Z,39.70
2018-01-21T03:54:57.530Z,36.67
2018-01-21T03:57:25.497Z,38.60
2018-01-21T03:59:53.568Z,40.07
2018-01-21T04:02:21.493Z,42.23
2018-01-21T04:04:49.463Z,36.83
2018-01-21T04:07:17.377Z,42.83
2018-01-21T04:09:45.324Z,39.83
2018-01-21T04:12:13.950Z,45.70
2018-01-21T04:14:41.905Z,42.83
2018-01-21T04:17:09.833Z,43.10
2018-01-21T04:19:37.784Z,39.67
2018-01-21T04:22:05.717Z,41.90
2018-01-21T04:24:33.680Z,38.03
2018-01-21T04:27:01.609Z,37.07
2018-01-21T04:29:29.526Z,40.87
2018-01-21T04:31:57.513Z,37.40
2018-01-21T04:34:25.413Z,41.47
2018-01-21T04:36:53.384Z,44.23
2018-01-21T04:39:21.339Z,38.85
2018-01-21T04:41:49.268Z,39.20
2018-01-21T04:44:17.230Z,39.47
2018-01-21T04:46:45.157Z,40.73
2018-01-21T04:49:13.080Z,42.20
2018-01-21T04:51:41.061Z,39.08
2018-01-21T04:54:08.987Z,39.38
2018-01-21T04:56:37.049Z,42.65
2018-01-21T04:59:05.009Z,46.13
2018-01-21T05:01:32.944Z,38.17
2018-01-21T05:04:00.965Z,39.13
2018-01-21T05:06:28.969Z,38.33
2018-01-21T05:08:56.922Z,37.60
2018-01-21T05:11:24.905Z,40.50
2018-01-21T05:13:52.808Z,40.33
2018-01-21T05:16:20.751Z,40.63
2018-01-21T05:18:48.692Z,42.53
2018-01-21T05:21:16.633Z,46.67
2018-01-21T05:23:44.579Z,48.13
2018-01-21T05:26:12.499Z,47.57
2018-01-21T05:28:40.438Z,41.80
2018-01-21T05:31:08.381Z,44.08
2018-01-21T05:33:36.301Z,39.50
2018-01-21T05:36:04.243Z,42.03
2018-01-21T05:38:32.186Z,41.33
2018-01-21T05:41:00.134Z,41.47
2018-01-21T05:43:28.237Z,41.40
2018-01-21T05:45:56.178Z,37.80
2018-01-21T05:48:24.113Z,39.63
2018-01-21T05:50:52.141Z,39.97
2018-01-21T05:53:20.113Z,38.90
2018-01-21T05:55:48.028Z,35.90
2018-01-21T05:58:16.060Z,37.07
2018-01-21T06:00:43.997Z,40.27
2018-01-21T06:03:12.085Z,37.33
2018-01-21T06:05:40.012Z,38.88
2018-01-21T06:08:08.006Z,38.43
2018-01-21T06:10:35.945Z,39.38
2018-01-21T06:13:03.899Z,117.22
2018-01-21T06:15:31.809Z,97.53
2018-01-21T06:17:59.866Z,93.43
2018-01-21T06:20:28.825Z,204.60
2018-01-21T06:22:56.736Z,57.30
2018-01-21T06:25:24.674Z,40.13
2018-01-21T06:27:52.734Z,37.47
2018-01-21T06:30:20.712Z,33.13
2018-01-21T06:32:48.745Z,36.80
2018-01-21T06:35:16.733Z,36.03
2018-01-21T06:37:45.604Z,35.90
2018-01-21T06:40:13.561Z,34.07
2018-01-21T06:42:42.285Z,35.15
2018-01-21T06:45:10.444Z,37.87
2018-01-21T06:47:38.362Z,37.60
2018-01-21T06:50:06.304Z,37.77
2018-01-21T06:52:34.317Z,38.40
2018-01-21T06:55:02.520Z,40.10
2018-01-21T06:57:30.464Z,35.97
2018-01-21T06:59:58.417Z,33.13
2018-01-21T07:02:26.523Z,34.70
2018-01-21T07:04:54.528Z,37.50
2018-01-21T07:07:22.742Z,43.47
2018-01-21T07:09:50.743Z,37.33
2018-01-21T07:12:18.846Z,44.35
2018-01-21T07:14:46.804Z,42.13
2018-01-21T07:17:14.730Z,40.17
2018-01-21T07:19:42.705Z,39.75
2018-01-21T07:22:10.688Z,39.05
2018-01-21T07:24:38.638Z,37.27
2018-01-21T07:27:06.588Z,40.77
2018-01-21T07:29:34.563Z,42.22
2018-01-21T07:32:02.540Z,37.00
2018-01-21T07:34:30.486Z,34.33
2018-01-21T07:36:58.406Z,34.30
2018-01-21T07:39:26.354Z,34.50
2018-01-21T07:41:54.294Z,36.13
2018-01-21T07:44:22.281Z,36.65
2018-01-21T07:46:50.233Z,37.77
2018-01-21T07:49:18.254Z,33.90
2018-01-21T07:51:46.192Z,35.28
2018-01-21T07:54:14.266Z,32.83
2018-01-21T07:56:42.210Z,34.33
2018-01-21T07:59:10.141Z,38.93
2018-01-21T08:01:38.252Z,34.20
2018-01-21T08:04:06.171Z,34.90
2018-01-21T08:06:34.110Z,33.53
2018-01-21T08:09:02.084Z,39.72
2018-01-21T08:11:30.022Z,33.28
2018-01-21T08:13:58.057Z,39.00
2018-01-21T08:16:25.989Z,43.07
2018-01-21T08:18:54.000Z,36.40
2018-01-21T08:21:21.926Z,38.90
2018-01-21T08:23:49.855Z,37.03
2018-01-21T08:26:17.811Z,42.87
2018-01-21T08:28:45.749Z,41.20
2018-01-21T08:31:13.676Z,37.60
2018-01-21T08:33:47.121Z,41.28
2018-01-21T08:36:21.080Z,34.60
2018-01-21T08:38:54.779Z,39.83
2018-01-21T08:41:28.651Z,38.60
2018-01-21T08:43:56.678Z,37.40
2018-01-21T08:46:25.374Z,38.30
2018-01-21T08:48:53.929Z,41.27
2018-01-21T08:51:21.887Z,41.40
2018-01-21T08:53:49.828Z,40.47
2018-01-21T08:56:18.530Z,36.93
2018-01-21T08:58:48.155Z,41.47
2018-01-21T09:01:16.162Z,38.70
2018-01-21T09:03:45.194Z,36.23
2018-01-21T09:06:13.432Z,37.00
2018-01-21T09:08:41.453Z,40.10
2018-01-21T09:11:10.268Z,41.63
2018-01-21T09:13:38.730Z,36.93
2018-01-21T09:16:06.645Z,37.30
2018-01-21T09:18:34.579Z,39.03
2018-01-21T09:21:02.893Z,38.13
2018-01-21T09:23:31.263Z,39.37
2018-01-21T09:25:59.191Z,38.30
2018-01-21T09:28:27.124Z,35.17
2018-01-21T09:30:55.481Z,41.10
2018-01-21T09:33:23.466Z,38.73
2018-01-21T09:35:51.556Z,36.90
2018-01-21T09:38:19.577Z,40.87
2018-01-21T09:40:47.514Z,38.90
2018-01-21T09:43:15.640Z,37.70
2018-01-21T09:45:43.585Z,35.77
2018-01-21T09:48:11.525Z,34.47
2018-01-21T09:50:39.501Z,36.67
2018-01-21T09:53:07.515Z,38.70
2018-01-21T09:55:35.457Z,33.73
2018-01-21T09:58:03.381Z,36.83
2018-01-21T10:00:31.515Z,33.70
2018-01-21T10:02:59.417Z,35.50
2018-01-21T10:05:27.357Z,39.90
2018-01-21T10:07:55.309Z,39.13
2018-01-21T10:10:23.709Z,36.63
2018-01-21T10:12:51.737Z,40.17
2018-01-21T10:15:19.653Z,35.47
2018-01-21T10:17:47.596Z,37.60
2018-01-21T10:20:15.510Z,41.43
2018-01-21T10:22:43.483Z,45.30
2018-01-21T10:25:11.421Z,36.43
2018-01-21T10:27:39.371Z,41.27
2018-01-21T10:30:07.348Z,37.40
2018-01-21T10:32:35.269Z,37.27
2018-01-21T10:35:03.654Z,37.80
2018-01-21T10:37:32.055Z,32.60
2018-01-21T10:40:00.052Z,39.90
2018-01-21T10:42:27.964Z,36.33
2018-01-21T10:44:55.952Z,30.67
2018-01-21T10:47:23.945Z,32.40
2018-01-21T10:49:52.687Z,34.60
2018-01-21T10:52:20.641Z,27.23
2018-01-21T10:54:48.576Z,33.93
2018-01-21T10:57:17.350Z,30.47
2018-01-21T10:59:45.393Z,36.00
2018-01-21T11:02:14.308Z,34.63
2018-01-21T11:04:42.247Z,35.80
2018-01-21T11:07:11.155Z,34.50
2018-01-21T11:09:39.455Z,36.60
2018-01-21T11:12:07.481Z,33.37
2018-01-21T11:14:35.864Z,29.30
2018-01-21T11:17:05.151Z,30.90
2018-01-21T11:19:33.242Z,29.80
2018-01-21T11:22:02.105Z,34.10
2018-01-21T11:24:30.238Z,34.00
2018-01-21T11:26:58.213Z,30.10
2018-01-21T11:29:26.160Z,31.87
2018-01-21T11:31:54.224Z,35.63
2018-01-21T11:34:22.138Z,34.40
2018-01-21T11:36:50.076Z,35.80
2018-01-21T11:39:18.199Z,35.23
2018-01-21T11:41:46.213Z,32.13
2018-01-21T11:44:14.143Z,32.70
2018-01-21T11:46:42.819Z,35.67
2018-01-21T11:49:10.724Z,31.57
2018-01-21T11:51:38.952Z,31.27
2018-01-21T11:54:06.899Z,29.93
2018-01-21T11:56:34.845Z,31.43
2018-01-21T11:59:02.786Z,31.07
2018-01-21T12:01:30.740Z,31.30
2018-01-21T12:03:58.681Z,30.80
2018-01-21T12:06:26.627Z,33.63
2018-01-21T12:08:54.661Z,32.40
2018-01-21T12:11:22.577Z,33.20
2018-01-21T12:13:50.526Z,43.07
2018-01-21T12:16:18.569Z,33.00
2018-01-21T12:18:46.490Z,36.53
2018-01-21T12:21:14.467Z,36.73
2018-01-21T12:23:42.477Z,34.23
2018-01-21T12:26:10.405Z,30.50
2018-01-21T12:28:38.487Z,30.00
2018-01-21T12:31:07.527Z,34.03
2018-01-21T12:33:35.518Z,31.00
2018-01-21T12:36:03.474Z,32.97
2018-01-21T12:38:31.446Z,30.70
2018-01-21T12:40:59.405Z,32.47
2018-01-21T12:43:27.331Z,29.43
2018-01-21T12:45:55.245Z,29.90
2018-01-21T12:48:23.189Z,31.90
2018-01-21T12:50:51.262Z,35.37
2018-01-21T12:53:19.187Z,35.20
2018-01-21T12:55:47.129Z,32.83
2018-01-21T12:58:15.101Z,35.50
2018-01-21T13:00:43.065Z,32.63
2018-01-21T13:03:11.598Z,32.63
2018-01-21T13:05:39.645Z,32.60
2018-01-21T13:08:08.992Z,32.47
2018-01-21T13:10:37.188Z,36.53
2018-01-21T13:13:05.439Z,34.37
2018-01-21T13:15:35.457Z,35.47
2018-01-21T13:18:04.593Z,34.17
2018-01-21T13:20:32.793Z,35.17
2018-01-21T13:23:00.912Z,34.77
2018-01-21T13:25:29.729Z,34.77
2018-01-21T13:27:57.764Z,36.30
2018-01-21T13:30:26.031Z,33.03
2018-01-21T13:32:54.359Z,37.70
2018-01-21T13:35:22.642Z,33.70
2018-01-21T13:37:50.897Z,35.63
2018-01-21T13:40:18.978Z,36.37
2018-01-21T13:42:48.086Z,33.77
2018-01-21T13:45:16.383Z,33.90
2018-01-21T13:47:44.308Z,37.33
2018-01-21T13:50:12.256Z,37.20
2018-01-21T13:52:40.286Z,35.13
2018-01-21T13:55:08.716Z,33.60
2018-01-21T13:57:36.631Z,36.77
2018-01-21T14:00:04.706Z,41.10
2018-01-21T14:02:32.640Z,39.67
2018-01-21T14:05:00.639Z,34.90
2018-01-21T14:07:28.570Z,37.20
2018-01-21T14:09:56.499Z,35.80
2018-01-21T14:12:25.385Z,37.10
2018-01-21T14:14:53.522Z,36.80
2018-01-21T14:17:21.995Z,36.03
2018-01-21T14:19:49.987Z,35.47
2018-01-21T14:22:17.975Z,39.87
2018-01-21T14:24:45.978Z,38.83
2018-01-21T14:27:13.951Z,40.90
2018-01-21T14:29:41.884Z,37.00
2018-01-21T14:32:09.897Z,40.70
2018-01-21T14:34:37.950Z,42.47
2018-01-21T14:37:05.998Z,42.67
2018-01-21T14:39:35.388Z,41.53
2018-01-21T14:42:03.502Z,39.70
2018-01-21T14:44:31.519Z,40.80
2018-01-21T14:46:59.580Z,38.87
2018-01-21T14:49:27.612Z,39.60
2018-01-21T14:51:55.565Z,39.70
2018-01-21T14:54:23.473Z,41.10
2018-01-21T14:56:51.441Z,48.00
2018-01-21T14:59:19.392Z,39.93
2018-01-21T15:01:47.360Z,37.90
2018-01-21T15:04:15.330Z,40.30
2018-01-21T15:06:44.449Z,41.40
2018-01-21T15:09:12.470Z,41.67
2018-01-21T15:11:40.426Z,40.63
2018-01-21T15:14:08.390Z,46.47
2018-01-21T15:16:36.360Z,43.23
2018-01-21T15:19:05.653Z,49.47
2018-01-21T15:21:33.595Z,43.27
2018-01-21T15:24:01.627Z,49.67
2018-01-21T15:26:29.591Z,60.60
2018-01-21T15:28:57.544Z,45.13
2018-01-21T15:31:25.515Z,40.80
2018-01-21T15:33:53.457Z,43.70
2018-01-21T15:36:21.788Z,33.57
2018-01-21T15:38:49.898Z,38.03
2018-01-21T15:41:17.853Z,41.00
2018-01-21T15:43:45.796Z,44.50
2018-01-21T15:46:13.736Z,60.53
2018-01-21T15:48:41.714Z,74.95
2018-01-21T15:51:09.622Z,58.53
2018-01-21T15:53:37.635Z,52.97
2018-01-21T15:56:05.653Z,117.87
2018-01-21T15:58:33.595Z,65.25
2018-01-21T16:01:01.569Z,62.80
2018-01-21T16:03:29.509Z,105.50
2018-01-21T16:05:57.474Z,110.35
2018-01-21T16:08:25.473Z,61.72
2018-01-21T16:10:53.493Z,43.08
2018-01-21T16:13:21.430Z,68.82
2018-01-21T16:15:49.392Z,59.00
2018-01-21T16:18:17.400Z,100.28
2018-01-21T16:20:45.377Z,53.33
2018-01-21T16:23:13.303Z,96.57
2018-01-21T16:25:41.233Z,71.45
2018-01-21T16:28:09.201Z,97.75
2018-01-21T16:30:37.125Z,155.90
2018-01-21T16:33:05.083Z,125.97
2018-01-21T16:35:33.023Z,126.00
2018-01-21T16:38:12.849Z,129.18
2018-01-21T16:40:40.885Z,105.25
2018-01-21T16:43:08.997Z,104.38
2018-01-21T16:45:36.990Z,84.68
2018-01-21T16:48:07.100Z,107.90
2018-01-21T16:50:35.040Z,85.03
2018-01-21T16:53:02.945Z,99.80
2018-01-21T16:55:30.875Z,107.75
2018-01-21T16:57:58.805Z,89.10
2018-01-21T17:00:26.841Z,73.87
2018-01-21T17:02:54.764Z,74.65
2018-01-21T17:05:22.704Z,121.13
2018-01-21T17:07:50.648Z,78.68
2018-01-21T17:10:18.558Z,98.95
2018-01-21T17:12:46.498Z,107.00
2018-01-21T17:15:14.405Z,88.87
2018-01-21T17:17:42.421Z,98.20
2018-01-21T17:20:10.507Z,117.93
2018-01-21T17:22:38.460Z,124.43
2018-01-21T17:25:06.549Z,105.22
2018-01-21T17:27:34.591Z,101.07
2018-01-21T17:30:02.557Z,85.95
2018-01-21T17:32:30.593Z,71.22
2018-01-21T17:34:58.569Z,100.43
2018-01-21T17:37:26.501Z,96.07
2018-01-21T17:39:54.498Z,71.47
2018-01-21T17:42:23.309Z,59.90
2018-01-21T17:44:51.330Z,77.32
2018-01-21T17:47:19.350Z,67.37
2018-01-21T17:49:47.272Z,67.37
2018-01-21T17:52:15.241Z,86.93
2018-01-21T17:54:43.184Z,70.07
2018-01-21T17:57:11.169Z,73.43
2018-01-21T17:59:39.111Z,79.53
2018-01-21T18:02:07.090Z,73.82
2018-01-21T18:04:35.053Z,73.43
2018-01-21T18:07:03.141Z,75.47
2018-01-21T18:09:31.152Z,85.57
2018-01-21T18:11:59.329Z,78.68
2018-01-21T18:14:27.326Z,77.70
2018-01-21T18:16:55.265Z,72.65
2018-01-21T18:19:23.276Z,77.60
2018-01-21T18:21:51.467Z,84.15
2018-01-21T18:24:19.399Z,90.68
2018-01-21T18:26:47.450Z,81.35
2018-01-21T18:29:15.433Z,84.20
2018-01-21T18:31:43.646Z,78.05
2018-01-21T18:34:11.585Z,88.18
2018-01-21T18:36:39.541Z,78.45
2018-01-21T18:39:07.496Z,84.62
2018-01-21T18:41:35.424Z,80.78
2018-01-21T18:44:03.350Z,90.80
2018-01-21T18:46:31.264Z,110.53
2018-01-21T18:48:59.246Z,78.87
2018-01-21T18:51:27.358Z,87.55
2018-01-21T18:53:55.289Z,77.28
2018-01-21T18:56:23.209Z,80.20
2018-01-21T18:58:51.126Z,66.75
2018-01-21T19:01:19.088Z,80.62
2018-01-21T19:03:47.061Z,71.80
2018-01-21T19:06:15.018Z,71.65
2018-01-21T19:08:43.047Z,62.38
2018-01-21T19:11:10.929Z,60.85
2018-01-21T19:13:38.871Z,53.17
2018-01-21T19:16:06.855Z,66.25
2018-01-21T19:18:34.826Z,62.13
2018-01-21T19:21:03.214Z,64.25
2018-01-21T19:23:31.255Z,59.10
2018-01-21T19:25:59.209Z,56.83
2018-01-21T19:28:27.123Z,56.20
2018-01-21T19:30:55.102Z,61.67
2018-01-21T19:33:23.026Z,65.45
2018-01-21T19:35:50.974Z,46.58
2018-01-21T19:43:52.265Z,55.33
2018-01-21T19:46:20.088Z,60.25
2018-01-21T19:48:48.813Z,76.57
2018-01-21T19:51:17.117Z,63.15
2018-01-21T19:53:45.265Z,66.35
2018-01-21T19:56:14.189Z,66.55
2018-01-21T19:58:42.796Z,62.88
2018-01-21T20:01:10.913Z,62.33
2018-01-21T20:03:38.903Z,62.62
2018-01-21T20:06:06.969Z,49.60
2018-01-21T20:08:34.905Z,50.03
2018-01-21T20:11:03.044Z,42.62
2018-01-21T20:13:31.041Z,40.70
2018-01-21T20:15:59.149Z,65.12
2018-01-21T20:18:27.103Z,55.12
2018-01-21T20:20:55.045Z,47.42
2018-01-21T20:23:23.024Z,54.75
2018-01-21T20:25:51.009Z,45.58
2018-01-21T20:28:19.043Z,40.60
2018-01-21T20:30:47.403Z,36.20
2018-01-21T20:33:15.306Z,40.10
2018-01-21T20:35:43.268Z,37.92
2018-01-21T20:38:11.240Z,30.92
2018-01-21T20:40:39.214Z,42.95
2018-01-21T20:43:07.570Z,50.83
2018-01-21T20:45:35.583Z,41.83
2018-01-21T20:48:03.579Z,40.30
2018-01-21T20:50:31.517Z,42.60
2018-01-21T20:53:00.536Z,37.03
2018-01-21T20:55:28.474Z,60.70
2018-01-21T20:57:56.425Z,62.33
2018-01-21T21:00:24.415Z,48.47
2018-01-21T21:02:52.371Z,77.82
2018-01-21T21:05:20.358Z,52.28
2018-01-21T21:07:48.327Z,58.72
2018-01-21T21:10:16.301Z,47.45
2018-01-21T21:12:44.300Z,62.75
2018-01-21T21:15:12.229Z,43.63
2018-01-21T21:17:40.218Z,53.03
2018-01-21T21:20:08.197Z,58.05
2018-01-21T21:22:36.204Z,50.47
2018-01-21T21:25:04.200Z,58.00
2018-01-21T21:27:32.320Z,45.10
2018-01-21T21:30:00.322Z,42.50
2018-01-21T21:32:28.278Z,47.45
2018-01-21T21:34:56.351Z,43.08
2018-01-21T21:37:24.357Z,44.13
2018-01-21T21:39:52.375Z,45.85
2018-01-21T21:42:20.309Z,46.85
2018-01-21T21:44:48.282Z,42.85
2018-01-21T21:47:17.205Z,48.87
2018-01-21T21:49:45.647Z,44.58
2018-01-21T21:52:13.601Z,46.05
2018-01-21T21:54:41.528Z,45.15
2018-01-21T21:57:09.497Z,44.92
2018-01-21T21:59:37.413Z,52.35
2018-01-21T22:02:05.398Z,41.55
2018-01-21T22:04:33.364Z,46.88
2018-01-21T22:07:01.313Z,50.72
2018-01-21T22:09:29.241Z,48.67
2018-01-21T22:11:57.233Z,46.08
2018-01-21T22:14:25.216Z,41.40
2018-01-21T22:16:53.232Z,46.47
2018-01-21T22:19:21.940Z,51.03
2018-01-21T22:21:49.867Z,45.25
2018-01-21T22:24:17.903Z,49.83
2018-01-21T22:26:45.853Z,51.00
2018-01-21T22:29:13.854Z,45.42
2018-01-21T22:31:41.789Z,43.42
2018-01-21T22:34:09.788Z,46.13
2018-01-21T22:36:37.833Z,44.60
2018-01-21T22:39:05.779Z,39.95
2018-01-21T22:41:33.827Z,40.85
2018-01-21T22:44:01.782Z,43.45
2018-01-21T22:46:29.732Z,45.97
2018-01-21T22:48:57.701Z,44.67
2018-01-21T22:51:25.693Z,46.65
2018-01-21T22:53:54.229Z,52.50
2018-01-21T22:56:22.194Z,47.17
2018-01-21T22:58:50.122Z,46.95
2018-01-21T23:01:18.161Z,43.00
2018-01-21T23:03:46.389Z,45.30
2018-01-21T23:06:14.338Z,45.80
2018-01-21T23:08:42.262Z,40.60
2018-01-21T23:11:10.198Z,48.70
2018-01-21T23:13:38.133Z,46.88
2018-01-21T23:16:06.077Z,45.50
2018-01-21T23:18:34.011Z,51.08
2018-01-21T23:21:02.014Z,48.47
2018-01-21T23:23:29.944Z,56.10
2018-01-21T23:25:57.882Z,56.15
2018-01-21T23:28:25.809Z,49.95
2018-01-21T23:30:53.751Z,51.90
2018-01-21T23:33:21.720Z,54.97
2018-01-21T23:35:49.676Z,46.53
2018-01-21T23:38:17.616Z,44.45
2018-01-21T23:40:45.563Z,39.05
2018-01-21T23:43:13.640Z,42.92
2018-01-21T23:45:41.560Z,46.15
2018-01-21T23:48:09.530Z,41.22
2018-01-21T23:50:37.524Z,36.78
2018-01-21T23:53:06.205Z,49.80
2018-01-21T23:55:34.444Z,40.08
2018-01-21T23:58:02.342Z,38.55
